sensor_id;sensor_type;location;lat;lon;timestamp;P1;durP1;ratioP1;P2;durP2;ratioP2
14619;SDS011;32125;48.518;9.050;2023-01-08T00:02:15;20.77;;;15.30;;
14619;SDS011;32125;48.518;9.050;2023-01-08T00:04:44;21.07;;;15.57;;
14619;SDS011;32125;48.518;9.050;2023-01-08T00:07:10;22.50;;;15.13;;
14619;SDS011;32125;48.518;9.050;2023-01-08T00:09:36;19.07;;;14.73;;
14619;SDS011;32125;48.518;9.050;2023-01-08T00:12:02;18.47;;;14.30;;
14619;SDS011;32125;48.518;9.050;2023-01-08T00:14:30;21.50;;;16.03;;
14619;SDS011;32125;48.518;9.050;2023-01-08T00:16:58;22.67;;;15.57;;
14619;SDS011;32125;48.518;9.050;2023-01-08T00:19:26;20.80;;;15.10;;
14619;SDS011;32125;48.518;9.050;2023-01-08T00:21:52;20.97;;;15.13;;
14619;SDS011;32125;48.518;9.050;2023-01-08T00:24:18;20.43;;;14.40;;
14619;SDS011;32125;48.518;9.050;2023-01-08T00:26:44;23.23;;;16.10;;
14619;SDS011;32125;48.518;9.050;2023-01-08T00:29:10;20.00;;;15.40;;
14619;SDS011;32125;48.518;9.050;2023-01-08T00:31:36;20.27;;;15.23;;
14619;SDS011;32125;48.518;9.050;2023-01-08T00:34:05;18.33;;;15.00;;
14619;SDS011;32125;48.518;9.050;2023-01-08T00:36:31;21.57;;;16.47;;
14619;SDS011;32125;48.518;9.050;2023-01-08T00:38:57;18.73;;;14.07;;
14619;SDS011;32125;48.518;9.050;2023-01-08T00:41:24;19.40;;;15.03;;
14619;SDS011;32125;48.518;9.050;2023-01-08T00:43:52;20.17;;;15.97;;
14619;SDS011;32125;48.518;9.050;2023-01-08T00:46:18;22.07;;;15.57;;
14619;SDS011;32125;48.518;9.050;2023-01-08T00:48:44;19.87;;;15.23;;
14619;SDS011;32125;48.518;9.050;2023-01-08T00:51:10;20.67;;;15.67;;
14619;SDS011;32125;48.518;9.050;2023-01-08T00:53:37;22.33;;;15.77;;
14619;SDS011;32125;48.518;9.050;2023-01-08T00:56:06;20.60;;;16.20;;
14619;SDS011;32125;48.518;9.050;2023-01-08T00:58:37;21.93;;;16.53;;
14619;SDS011;32125;48.518;9.050;2023-01-08T01:01:09;20.00;;;16.17;;
14619;SDS011;32125;48.518;9.050;2023-01-08T01:03:38;23.30;;;16.93;;
14619;SDS011;32125;48.518;9.050;2023-01-08T01:06:05;22.10;;;16.13;;
14619;SDS011;32125;48.518;9.050;2023-01-08T01:08:32;20.60;;;15.33;;
14619;SDS011;32125;48.518;9.050;2023-01-08T01:11:00;20.00;;;15.33;;
14619;SDS011;32125;48.518;9.050;2023-01-08T01:13:34;20.70;;;15.60;;
14619;SDS011;32125;48.518;9.050;2023-01-08T01:16:00;21.50;;;16.43;;
14619;SDS011;32125;48.518;9.050;2023-01-08T01:18:27;19.90;;;16.00;;
14619;SDS011;32125;48.518;9.050;2023-01-08T01:20:55;22.57;;;16.17;;
14619;SDS011;32125;48.518;9.050;2023-01-08T01:23:21;19.70;;;15.27;;
14619;SDS011;32125;48.518;9.050;2023-01-08T01:25:47;20.40;;;15.27;;
14619;SDS011;32125;48.518;9.050;2023-01-08T01:28:13;19.53;;;15.40;;
14619;SDS011;32125;48.518;9.050;2023-01-08T01:30:40;21.70;;;15.37;;
14619;SDS011;32125;48.518;9.050;2023-01-08T01:33:06;20.80;;;15.30;;
14619;SDS011;32125;48.518;9.050;2023-01-08T01:35:32;20.57;;;15.33;;
14619;SDS011;32125;48.518;9.050;2023-01-08T01:37:58;17.70;;;14.07;;
14619;SDS011;32125;48.518;9.050;2023-01-08T01:40:26;18.70;;;14.67;;
14619;SDS011;32125;48.518;9.050;2023-01-08T01:42:52;17.50;;;14.20;;
14619;SDS011;32125;48.518;9.050;2023-01-08T01:45:20;18.70;;;14.53;;
14619;SDS011;32125;48.518;9.050;2023-01-08T01:47:48;19.47;;;14.57;;
14619;SDS011;32125;48.518;9.050;2023-01-08T01:52:58;18.97;;;14.57;;
14619;SDS011;32125;48.518;9.050;2023-01-08T01:55:29;17.30;;;13.90;;
14619;SDS011;32125;48.518;9.050;2023-01-08T01:58:04;16.67;;;13.40;;
14619;SDS011;32125;48.518;9.050;2023-01-08T02:00:31;20.50;;;14.67;;
14619;SDS011;32125;48.518;9.050;2023-01-08T02:02:58;17.73;;;13.40;;
14619;SDS011;32125;48.518;9.050;2023-01-08T02:05:28;18.07;;;13.90;;
14619;SDS011;32125;48.518;9.050;2023-01-08T02:08:16;19.73;;;14.47;;
14619;SDS011;32125;48.518;9.050;2023-01-08T02:11:04;18.30;;;14.47;;
14619;SDS011;32125;48.518;9.050;2023-01-08T02:13:36;18.20;;;14.03;;
14619;SDS011;32125;48.518;9.050;2023-01-08T02:16:08;17.53;;;13.93;;
14619;SDS011;32125;48.518;9.050;2023-01-08T02:18:46;18.33;;;13.53;;
14619;SDS011;32125;48.518;9.050;2023-01-08T02:21:20;19.47;;;13.47;;
14619;SDS011;32125;48.518;9.050;2023-01-08T02:24:06;17.03;;;13.33;;
14619;SDS011;32125;48.518;9.050;2023-01-08T02:26:35;17.03;;;13.23;;
14619;SDS011;32125;48.518;9.050;2023-01-08T02:29:05;16.63;;;13.27;;
14619;SDS011;32125;48.518;9.050;2023-01-08T02:31:35;17.27;;;13.73;;
14619;SDS011;32125;48.518;9.050;2023-01-08T02:34:04;19.47;;;13.73;;
14619;SDS011;32125;48.518;9.050;2023-01-08T02:36:41;19.57;;;13.60;;
14619;SDS011;32125;48.518;9.050;2023-01-08T02:46:54;16.23;;;13.47;;
14619;SDS011;32125;48.518;9.050;2023-01-08T02:49:23;18.93;;;13.63;;
14619;SDS011;32125;48.518;9.050;2023-01-08T02:51:53;15.17;;;13.00;;
14619;SDS011;32125;48.518;9.050;2023-01-08T02:54:22;17.63;;;13.50;;
14619;SDS011;32125;48.518;9.050;2023-01-08T02:56:54;18.33;;;13.60;;
14619;SDS011;32125;48.518;9.050;2023-01-08T02:59:26;18.33;;;13.50;;
14619;SDS011;32125;48.518;9.050;2023-01-08T03:01:55;17.03;;;13.43;;
14619;SDS011;32125;48.518;9.050;2023-01-08T03:04:24;17.33;;;12.67;;
14619;SDS011;32125;48.518;9.050;2023-01-08T03:06:50;17.27;;;13.10;;
14619;SDS011;32125;48.518;9.050;2023-01-08T03:09:16;17.23;;;13.27;;
14619;SDS011;32125;48.518;9.050;2023-01-08T03:11:53;16.77;;;13.40;;
14619;SDS011;32125;48.518;9.050;2023-01-08T03:14:32;17.80;;;12.73;;
14619;SDS011;32125;48.518;9.050;2023-01-08T03:17:13;17.73;;;13.70;;
14619;SDS011;32125;48.518;9.050;2023-01-08T03:19:43;15.90;;;12.27;;
14619;SDS011;32125;48.518;9.050;2023-01-08T03:22:13;17.27;;;13.17;;
14619;SDS011;32125;48.518;9.050;2023-01-08T03:24:40;17.23;;;13.50;;
14619;SDS011;32125;48.518;9.050;2023-01-08T03:27:09;17.73;;;13.57;;
14619;SDS011;32125;48.518;9.050;2023-01-08T03:29:40;18.73;;;13.30;;
14619;SDS011;32125;48.518;9.050;2023-01-08T03:32:08;19.07;;;14.57;;
14619;SDS011;32125;48.518;9.050;2023-01-08T03:34:38;16.83;;;13.17;;
14619;SDS011;32125;48.518;9.050;2023-01-08T03:37:06;19.63;;;13.23;;
14619;SDS011;32125;48.518;9.050;2023-01-08T03:42:01;16.57;;;13.03;;
14619;SDS011;32125;48.518;9.050;2023-01-08T03:44:30;16.37;;;13.33;;
14619;SDS011;32125;48.518;9.050;2023-01-08T03:46:56;17.40;;;13.97;;
14619;SDS011;32125;48.518;9.050;2023-01-08T03:49:23;17.70;;;13.90;;
14619;SDS011;32125;48.518;9.050;2023-01-08T03:51:52;18.03;;;13.87;;
14619;SDS011;32125;48.518;9.050;2023-01-08T03:54:19;17.20;;;13.40;;
14619;SDS011;32125;48.518;9.050;2023-01-08T03:56:48;18.53;;;14.13;;
14619;SDS011;32125;48.518;9.050;2023-01-08T03:59:14;20.60;;;14.10;;
14619;SDS011;32125;48.518;9.050;2023-01-08T04:01:41;18.93;;;13.70;;
14619;SDS011;32125;48.518;9.050;2023-01-08T04:04:07;18.53;;;14.73;;
14619;SDS011;32125;48.518;9.050;2023-01-08T04:06:33;20.00;;;14.90;;
14619;SDS011;32125;48.518;9.050;2023-01-08T04:08:59;20.27;;;14.90;;
14619;SDS011;32125;48.518;9.050;2023-01-08T04:11:28;19.27;;;14.57;;
14619;SDS011;32125;48.518;9.050;2023-01-08T04:13:54;19.53;;;15.13;;
14619;SDS011;32125;48.518;9.050;2023-01-08T04:16:24;19.87;;;15.30;;
14619;SDS011;32125;48.518;9.050;2023-01-08T04:18:50;17.57;;;14.20;;
14619;SDS011;32125;48.518;9.050;2023-01-08T04:21:16;18.37;;;13.77;;
14619;SDS011;32125;48.518;9.050;2023-01-08T04:23:42;16.60;;;13.70;;
14619;SDS011;32125;48.518;9.050;2023-01-08T04:26:08;19.90;;;13.80;;
14619;SDS011;32125;48.518;9.050;2023-01-08T04:28:34;17.13;;;13.60;;
14619;SDS011;32125;48.518;9.050;2023-01-08T04:31:06;18.07;;;13.57;;
14619;SDS011;32125;48.518;9.050;2023-01-08T04:33:33;16.30;;;13.37;;
14619;SDS011;32125;48.518;9.050;2023-01-08T04:36:02;18.63;;;13.17;;
14619;SDS011;32125;48.518;9.050;2023-01-08T04:38:33;16.63;;;12.97;;
14619;SDS011;32125;48.518;9.050;2023-01-08T04:40:59;16.20;;;12.40;;
14619;SDS011;32125;48.518;9.050;2023-01-08T04:43:26;15.80;;;12.60;;
14619;SDS011;32125;48.518;9.050;2023-01-08T04:45:56;14.93;;;11.70;;
14619;SDS011;32125;48.518;9.050;2023-01-08T04:48:26;14.57;;;11.80;;
14619;SDS011;32125;48.518;9.050;2023-01-08T04:50:56;14.20;;;11.70;;
14619;SDS011;32125;48.518;9.050;2023-01-08T04:53:23;16.00;;;11.33;;
14619;SDS011;32125;48.518;9.050;2023-01-08T04:55:48;14.97;;;11.33;;
14619;SDS011;32125;48.518;9.050;2023-01-08T04:58:14;13.40;;;11.13;;
14619;SDS011;32125;48.518;9.050;2023-01-08T05:00:40;13.40;;;10.83;;
14619;SDS011;32125;48.518;9.050;2023-01-08T05:03:06;16.67;;;11.13;;
14619;SDS011;32125;48.518;9.050;2023-01-08T05:05:32;15.37;;;11.80;;
14619;SDS011;32125;48.518;9.050;2023-01-08T05:07:58;19.50;;;11.80;;
14619;SDS011;32125;48.518;9.050;2023-01-08T05:10:24;13.87;;;11.40;;
14619;SDS011;32125;48.518;9.050;2023-01-08T05:12:50;14.63;;;11.10;;
14619;SDS011;32125;48.518;9.050;2023-01-08T05:15:18;14.90;;;11.43;;
14619;SDS011;32125;48.518;9.050;2023-01-08T05:17:47;14.17;;;11.37;;
14619;SDS011;32125;48.518;9.050;2023-01-08T05:20:13;16.27;;;11.97;;
14619;SDS011;32125;48.518;9.050;2023-01-08T05:22:39;16.60;;;12.97;;
14619;SDS011;32125;48.518;9.050;2023-01-08T05:25:05;15.90;;;11.73;;
14619;SDS011;32125;48.518;9.050;2023-01-08T05:27:32;14.60;;;12.03;;
14619;SDS011;32125;48.518;9.050;2023-01-08T05:30:02;16.10;;;12.57;;
14619;SDS011;32125;48.518;9.050;2023-01-08T05:32:30;14.27;;;11.60;;
14619;SDS011;32125;48.518;9.050;2023-01-08T05:34:56;15.50;;;11.93;;
14619;SDS011;32125;48.518;9.050;2023-01-08T05:37:22;16.67;;;12.20;;
14619;SDS011;32125;48.518;9.050;2023-01-08T05:39:48;15.17;;;11.97;;
14619;SDS011;32125;48.518;9.050;2023-01-08T05:42:14;14.90;;;12.47;;
14619;SDS011;32125;48.518;9.050;2023-01-08T05:44:40;14.20;;;12.30;;
14619;SDS011;32125;48.518;9.050;2023-01-08T05:47:08;14.53;;;12.17;;
14619;SDS011;32125;48.518;9.050;2023-01-08T05:49:36;15.50;;;12.77;;
14619;SDS011;32125;48.518;9.050;2023-01-08T05:52:02;14.83;;;11.90;;
14619;SDS011;32125;48.518;9.050;2023-01-08T05:54:28;16.33;;;12.83;;
14619;SDS011;32125;48.518;9.050;2023-01-08T05:56:54;16.73;;;12.63;;
14619;SDS011;32125;48.518;9.050;2023-01-08T05:59:22;16.73;;;12.50;;
14619;SDS011;32125;48.518;9.050;2023-01-08T06:01:48;15.30;;;12.80;;
14619;SDS011;32125;48.518;9.050;2023-01-08T06:04:14;18.00;;;14.13;;
14619;SDS011;32125;48.518;9.050;2023-01-08T06:06:40;17.30;;;13.57;;
14619;SDS011;32125;48.518;9.050;2023-01-08T06:09:05;16.87;;;13.37;;
14619;SDS011;32125;48.518;9.050;2023-01-08T06:11:31;16.97;;;13.40;;
14619;SDS011;32125;48.518;9.050;2023-01-08T06:13:57;18.10;;;13.47;;
14619;SDS011;32125;48.518;9.050;2023-01-08T06:16:23;17.40;;;13.97;;
14619;SDS011;32125;48.518;9.050;2023-01-08T06:18:49;17.43;;;13.07;;
14619;SDS011;32125;48.518;9.050;2023-01-08T06:21:15;18.17;;;13.43;;
14619;SDS011;32125;48.518;9.050;2023-01-08T06:23:41;17.73;;;13.53;;
14619;SDS011;32125;48.518;9.050;2023-01-08T06:26:07;18.07;;;14.40;;
14619;SDS011;32125;48.518;9.050;2023-01-08T06:28:33;16.27;;;12.47;;
14619;SDS011;32125;48.518;9.050;2023-01-08T06:30:59;17.63;;;13.60;;
14619;SDS011;32125;48.518;9.050;2023-01-08T06:33:28;16.80;;;13.50;;
14619;SDS011;32125;48.518;9.050;2023-01-08T06:35:54;16.33;;;14.20;;
14619;SDS011;32125;48.518;9.050;2023-01-08T06:38:24;17.40;;;14.20;;
14619;SDS011;32125;48.518;9.050;2023-01-08T06:40:50;15.57;;;12.90;;
14619;SDS011;32125;48.518;9.050;2023-01-08T06:43:16;15.77;;;12.93;;
14619;SDS011;32125;48.518;9.050;2023-01-08T06:45:42;17.73;;;14.40;;
14619;SDS011;32125;48.518;9.050;2023-01-08T06:48:08;18.33;;;14.40;;
14619;SDS011;32125;48.518;9.050;2023-01-08T06:50:34;20.03;;;13.77;;
14619;SDS011;32125;48.518;9.050;2023-01-08T06:53:02;16.73;;;14.13;;
14619;SDS011;32125;48.518;9.050;2023-01-08T06:55:28;16.10;;;13.37;;
14619;SDS011;32125;48.518;9.050;2023-01-08T06:57:57;17.23;;;14.67;;
14619;SDS011;32125;48.518;9.050;2023-01-08T07:00:23;20.40;;;14.23;;
14619;SDS011;32125;48.518;9.050;2023-01-08T07:02:52;18.00;;;14.00;;
14619;SDS011;32125;48.518;9.050;2023-01-08T07:05:19;12.50;;;10.13;;
14619;SDS011;32125;48.518;9.050;2023-01-08T07:07:45;13.30;;;11.70;;
14619;SDS011;32125;48.518;9.050;2023-01-08T07:10:11;10.33;;;8.13;;
14619;SDS011;32125;48.518;9.050;2023-01-08T07:12:37;10.57;;;8.70;;
14619;SDS011;32125;48.518;9.050;2023-01-08T07:15:05;9.50;;;8.40;;
14619;SDS011;32125;48.518;9.050;2023-01-08T07:17:32;11.47;;;9.60;;
14619;SDS011;32125;48.518;9.050;2023-01-08T07:19:58;5.90;;;5.23;;
14619;SDS011;32125;48.518;9.050;2023-01-08T07:22:24;12.03;;;9.63;;
14619;SDS011;32125;48.518;9.050;2023-01-08T07:24:52;9.57;;;7.33;;
14619;SDS011;32125;48.518;9.050;2023-01-08T07:27:18;5.43;;;4.70;;
14619;SDS011;32125;48.518;9.050;2023-01-08T07:29:44;8.73;;;6.97;;
14619;SDS011;32125;48.518;9.050;2023-01-08T07:32:10;7.57;;;4.93;;
14619;SDS011;32125;48.518;9.050;2023-01-08T07:34:36;6.77;;;4.47;;
14619;SDS011;32125;48.518;9.050;2023-01-08T07:37:02;4.43;;;4.03;;
14619;SDS011;32125;48.518;9.050;2023-01-08T07:39:28;4.10;;;3.03;;
14619;SDS011;32125;48.518;9.050;2023-01-08T07:41:55;6.20;;;4.93;;
14619;SDS011;32125;48.518;9.050;2023-01-08T07:44:21;6.17;;;3.83;;
14619;SDS011;32125;48.518;9.050;2023-01-08T07:46:47;3.27;;;2.90;;
14619;SDS011;32125;48.518;9.050;2023-01-08T07:49:13;3.23;;;2.90;;
14619;SDS011;32125;48.518;9.050;2023-01-08T07:51:39;3.43;;;3.10;;
14619;SDS011;32125;48.518;9.050;2023-01-08T07:54:05;3.13;;;2.93;;
14619;SDS011;32125;48.518;9.050;2023-01-08T07:56:31;3.07;;;2.60;;
14619;SDS011;32125;48.518;9.050;2023-01-08T07:58:57;2.40;;;2.20;;
14619;SDS011;32125;48.518;9.050;2023-01-08T08:01:23;2.33;;;2.13;;
14619;SDS011;32125;48.518;9.050;2023-01-08T08:03:50;2.40;;;2.20;;
14619;SDS011;32125;48.518;9.050;2023-01-08T08:06:16;3.00;;;2.43;;
14619;SDS011;32125;48.518;9.050;2023-01-08T08:08:44;3.03;;;1.73;;
14619;SDS011;32125;48.518;9.050;2023-01-08T08:11:13;2.10;;;1.90;;
14619;SDS011;32125;48.518;9.050;2023-01-08T08:13:39;3.50;;;1.87;;
14619;SDS011;32125;48.518;9.050;2023-01-08T08:16:08;2.30;;;2.10;;
14619;SDS011;32125;48.518;9.050;2023-01-08T08:18:34;1.80;;;1.70;;
14619;SDS011;32125;48.518;9.050;2023-01-08T08:21:00;2.37;;;1.80;;
14619;SDS011;32125;48.518;9.050;2023-01-08T08:23:27;4.13;;;1.83;;
14619;SDS011;32125;48.518;9.050;2023-01-08T08:25:54;2.20;;;2.00;;
14619;SDS011;32125;48.518;9.050;2023-01-08T08:28:20;2.00;;;1.90;;
14619;SDS011;32125;48.518;9.050;2023-01-08T08:30:49;1.70;;;1.60;;
14619;SDS011;32125;48.518;9.050;2023-01-08T08:33:15;2.50;;;2.07;;
14619;SDS011;32125;48.518;9.050;2023-01-08T08:35:46;2.27;;;2.07;;
14619;SDS011;32125;48.518;9.050;2023-01-08T08:38:14;3.00;;;2.00;;
14619;SDS011;32125;48.518;9.050;2023-01-08T08:40:43;2.33;;;2.00;;
14619;SDS011;32125;48.518;9.050;2023-01-08T08:43:09;3.63;;;2.00;;
14619;SDS011;32125;48.518;9.050;2023-01-08T08:45:35;4.00;;;2.10;;
14619;SDS011;32125;48.518;9.050;2023-01-08T08:48:01;2.20;;;2.00;;
14619;SDS011;32125;48.518;9.050;2023-01-08T08:50:29;3.13;;;2.37;;
14619;SDS011;32125;48.518;9.050;2023-01-08T08:52:59;2.77;;;2.20;;
14619;SDS011;32125;48.518;9.050;2023-01-08T08:55:29;1.90;;;1.80;;
14619;SDS011;32125;48.518;9.050;2023-01-08T08:58:00;2.30;;;2.10;;
14619;SDS011;32125;48.518;9.050;2023-01-08T09:00:29;3.07;;;2.10;;
14619;SDS011;32125;48.518;9.050;2023-01-08T09:02:55;1.97;;;1.77;;
14619;SDS011;32125;48.518;9.050;2023-01-08T09:05:21;1.73;;;1.63;;
14619;SDS011;32125;48.518;9.050;2023-01-08T09:07:47;1.80;;;1.70;;
14619;SDS011;32125;48.518;9.050;2023-01-08T09:10:13;1.87;;;1.67;;
14619;SDS011;32125;48.518;9.050;2023-01-08T09:12:39;1.93;;;1.80;;
14619;SDS011;32125;48.518;9.050;2023-01-08T09:15:05;1.70;;;1.60;;
14619;SDS011;32125;48.518;9.050;2023-01-08T09:17:31;1.60;;;1.50;;
14619;SDS011;32125;48.518;9.050;2023-01-08T09:20:00;1.43;;;1.33;;
14619;SDS011;32125;48.518;9.050;2023-01-08T09:22:29;1.60;;;1.50;;
14619;SDS011;32125;48.518;9.050;2023-01-08T09:24:55;1.50;;;1.40;;
14619;SDS011;32125;48.518;9.050;2023-01-08T09:27:23;1.83;;;1.73;;
14619;SDS011;32125;48.518;9.050;2023-01-08T09:29:48;2.23;;;2.10;;
14619;SDS011;32125;48.518;9.050;2023-01-08T09:32:14;2.33;;;2.10;;
14619;SDS011;32125;48.518;9.050;2023-01-08T09:34:41;1.47;;;1.37;;
14619;SDS011;32125;48.518;9.050;2023-01-08T09:37:07;1.90;;;1.50;;
14619;SDS011;32125;48.518;9.050;2023-01-08T09:39:34;1.70;;;1.60;;
14619;SDS011;32125;48.518;9.050;2023-01-08T09:42:01;2.60;;;2.40;;
14619;SDS011;32125;48.518;9.050;2023-01-08T09:44:35;2.37;;;2.17;;
14619;SDS011;32125;48.518;9.050;2023-01-08T09:47:04;3.07;;;2.53;;
14619;SDS011;32125;48.518;9.050;2023-01-08T09:49:42;2.67;;;1.80;;
14619;SDS011;32125;48.518;9.050;2023-01-08T09:52:10;1.70;;;1.60;;
14619;SDS011;32125;48.518;9.050;2023-01-08T09:54:39;2.03;;;1.87;;
14619;SDS011;32125;48.518;9.050;2023-01-08T09:57:18;1.70;;;1.60;;
14619;SDS011;32125;48.518;9.050;2023-01-08T09:59:45;1.63;;;1.50;;
14619;SDS011;32125;48.518;9.050;2023-01-08T10:02:21;1.60;;;1.50;;
14619;SDS011;32125;48.518;9.050;2023-01-08T10:04:53;1.83;;;1.73;;
14619;SDS011;32125;48.518;9.050;2023-01-08T10:07:21;1.50;;;1.40;;
14619;SDS011;32125;48.518;9.050;2023-01-08T10:09:49;1.63;;;1.53;;
14619;SDS011;32125;48.518;9.050;2023-01-08T10:12:26;1.40;;;1.30;;
14619;SDS011;32125;48.518;9.050;2023-01-08T10:15:04;1.53;;;1.20;;
14619;SDS011;32125;48.518;9.050;2023-01-08T10:20:02;1.10;;;1.00;;
14619;SDS011;32125;48.518;9.050;2023-01-08T10:22:37;1.87;;;1.50;;
14619;SDS011;32125;48.518;9.050;2023-01-08T10:25:06;1.10;;;1.10;;
14619;SDS011;32125;48.518;9.050;2023-01-08T10:27:52;1.30;;;1.20;;
14619;SDS011;32125;48.518;9.050;2023-01-08T10:33:05;1.30;;;1.20;;
14619;SDS011;32125;48.518;9.050;2023-01-08T10:35:36;1.03;;;1.00;;
14619;SDS011;32125;48.518;9.050;2023-01-08T10:38:03;1.30;;;1.20;;
14619;SDS011;32125;48.518;9.050;2023-01-08T10:40:33;2.10;;;1.60;;
14619;SDS011;32125;48.518;9.050;2023-01-08T10:43:04;1.40;;;1.30;;
14619;SDS011;32125;48.518;9.050;2023-01-08T10:45:34;1.67;;;1.57;;
14619;SDS011;32125;48.518;9.050;2023-01-08T10:48:00;1.37;;;1.33;;
14619;SDS011;32125;48.518;9.050;2023-01-08T10:50:30;1.40;;;1.30;;
14619;SDS011;32125;48.518;9.050;2023-01-08T10:53:02;1.20;;;1.10;;
14619;SDS011;32125;48.518;9.050;2023-01-08T10:58:04;1.43;;;1.33;;
14619;SDS011;32125;48.518;9.050;2023-01-08T11:00:39;1.70;;;1.50;;
14619;SDS011;32125;48.518;9.050;2023-01-08T11:03:18;1.00;;;1.00;;
14619;SDS011;32125;48.518;9.050;2023-01-08T11:05:54;1.40;;;1.30;;
14619;SDS011;32125;48.518;9.050;2023-01-08T11:08:21;0.80;;;0.80;;
14619;SDS011;32125;48.518;9.050;2023-01-08T11:10:58;0.80;;;0.80;;
14619;SDS011;32125;48.518;9.050;2023-01-08T11:13:25;0.50;;;0.50;;
14619;SDS011;32125;48.518;9.050;2023-01-08T11:16:00;0.60;;;0.60;;
14619;SDS011;32125;48.518;9.050;2023-01-08T11:18:27;0.90;;;0.90;;
14619;SDS011;32125;48.518;9.050;2023-01-08T11:21:04;0.70;;;0.70;;
14619;SDS011;32125;48.518;9.050;2023-01-08T11:23:32;1.03;;;1.00;;
14619;SDS011;32125;48.518;9.050;2023-01-08T11:26:09;0.70;;;0.70;;
14619;SDS011;32125;48.518;9.050;2023-01-08T11:31:33;0.73;;;0.73;;
14619;SDS011;32125;48.518;9.050;2023-01-08T11:37:24;1.30;;;0.80;;
14619;SDS011;32125;48.518;9.050;2023-01-08T11:39:51;0.90;;;0.90;;
14619;SDS011;32125;48.518;9.050;2023-01-08T11:42:29;1.10;;;1.00;;
14619;SDS011;32125;48.518;9.050;2023-01-08T11:47:50;1.17;;;1.00;;
14619;SDS011;32125;48.518;9.050;2023-01-08T11:50:23;1.10;;;1.00;;
14619;SDS011;32125;48.518;9.050;2023-01-08T11:53:12;0.80;;;0.80;;
14619;SDS011;32125;48.518;9.050;2023-01-08T12:27:30;3.00;;;2.70;;
14619;SDS011;32125;48.518;9.050;2023-01-08T12:32:54;6.53;;;5.40;;
14619;SDS011;32125;48.518;9.050;2023-01-08T13:10:43;1.00;;;1.00;;
14619;SDS011;32125;48.518;9.050;2023-01-08T13:13:48;4.53;;;4.13;;
14619;SDS011;32125;48.518;9.050;2023-01-08T13:18:55;3.33;;;2.67;;
14619;SDS011;32125;48.518;9.050;2023-01-08T13:26:51;4.73;;;3.70;;
14619;SDS011;32125;48.518;9.050;2023-01-08T13:29:38;5.47;;;4.37;;
14619;SDS011;32125;48.518;9.050;2023-01-08T13:35:08;11.90;;;7.17;;
14619;SDS011;32125;48.518;9.050;2023-01-08T13:37:42;5.03;;;2.90;;
14619;SDS011;32125;48.518;9.050;2023-01-08T13:43:21;1.97;;;1.87;;
14619;SDS011;32125;48.518;9.050;2023-01-08T13:45:53;1.70;;;1.60;;
14619;SDS011;32125;48.518;9.050;2023-01-08T13:48:26;0.80;;;0.80;;
14619;SDS011;32125;48.518;9.050;2023-01-08T13:51:03;1.43;;;1.20;;
14619;SDS011;32125;48.518;9.050;2023-01-08T13:53:29;0.70;;;0.70;;
14619;SDS011;32125;48.518;9.050;2023-01-08T13:55:57;0.80;;;0.80;;
14619;SDS011;32125;48.518;9.050;2023-01-08T13:58:27;2.60;;;2.40;;
14619;SDS011;32125;48.518;9.050;2023-01-08T14:00:57;2.83;;;2.63;;
14619;SDS011;32125;48.518;9.050;2023-01-08T14:08:49;1.03;;;1.03;;
14619;SDS011;32125;48.518;9.050;2023-01-08T14:11:15;1.33;;;1.23;;
14619;SDS011;32125;48.518;9.050;2023-01-08T14:13:41;1.20;;;1.20;;
14619;SDS011;32125;48.518;9.050;2023-01-08T14:16:10;1.20;;;1.20;;
14619;SDS011;32125;48.518;9.050;2023-01-08T14:18:44;0.50;;;0.43;;
14619;SDS011;32125;48.518;9.050;2023-01-08T14:21:13;0.50;;;0.50;;
14619;SDS011;32125;48.518;9.050;2023-01-08T14:23:45;1.17;;;0.73;;
14619;SDS011;32125;48.518;9.050;2023-01-08T14:28:52;0.90;;;0.90;;
14619;SDS011;32125;48.518;9.050;2023-01-08T14:31:19;1.90;;;1.80;;
14619;SDS011;32125;48.518;9.050;2023-01-08T14:33:47;1.43;;;1.33;;
14619;SDS011;32125;48.518;9.050;2023-01-08T14:36:13;1.10;;;1.00;;
14619;SDS011;32125;48.518;9.050;2023-01-08T14:38:40;1.30;;;1.20;;
14619;SDS011;32125;48.518;9.050;2023-01-08T14:41:10;1.20;;;1.10;;
14619;SDS011;32125;48.518;9.050;2023-01-08T14:43:39;1.47;;;1.13;;
14619;SDS011;32125;48.518;9.050;2023-01-08T14:46:16;1.10;;;1.10;;
14619;SDS011;32125;48.518;9.050;2023-01-08T14:48:48;1.43;;;1.33;;
14619;SDS011;32125;48.518;9.050;2023-01-08T14:51:15;1.73;;;1.40;;
14619;SDS011;32125;48.518;9.050;2023-01-08T14:53:49;2.00;;;1.30;;
14619;SDS011;32125;48.518;9.050;2023-01-08T14:56:22;1.93;;;1.23;;
14619;SDS011;32125;48.518;9.050;2023-01-08T14:58:49;1.83;;;1.30;;
14619;SDS011;32125;48.518;9.050;2023-01-08T15:01:16;1.40;;;1.30;;
14619;SDS011;32125;48.518;9.050;2023-01-08T15:03:45;2.03;;;1.70;;
14619;SDS011;32125;48.518;9.050;2023-01-08T15:06:33;2.67;;;2.07;;
14619;SDS011;32125;48.518;9.050;2023-01-08T15:08:59;2.47;;;1.90;;
14619;SDS011;32125;48.518;9.050;2023-01-08T15:11:29;3.07;;;1.90;;
14619;SDS011;32125;48.518;9.050;2023-01-08T15:13:55;2.23;;;1.60;;
14619;SDS011;32125;48.518;9.050;2023-01-08T15:18:48;2.40;;;1.43;;
14619;SDS011;32125;48.518;9.050;2023-01-08T15:21:17;1.97;;;1.67;;
14619;SDS011;32125;48.518;9.050;2023-01-08T15:23:50;2.50;;;1.63;;
14619;SDS011;32125;48.518;9.050;2023-01-08T15:26:19;2.17;;;1.93;;
14619;SDS011;32125;48.518;9.050;2023-01-08T15:28:58;2.17;;;1.97;;
14619;SDS011;32125;48.518;9.050;2023-01-08T15:33:56;2.73;;;1.93;;
14619;SDS011;32125;48.518;9.050;2023-01-08T15:36:23;1.57;;;1.47;;
14619;SDS011;32125;48.518;9.050;2023-01-08T15:38:49;1.53;;;1.43;;
14619;SDS011;32125;48.518;9.050;2023-01-08T15:41:18;1.60;;;1.50;;
14619;SDS011;32125;48.518;9.050;2023-01-08T15:44:06;2.53;;;2.10;;
14619;SDS011;32125;48.518;9.050;2023-01-08T15:46:33;2.23;;;2.03;;
14619;SDS011;32125;48.518;9.050;2023-01-08T15:48:59;3.00;;;2.20;;
14619;SDS011;32125;48.518;9.050;2023-01-08T15:51:25;2.57;;;1.97;;
14619;SDS011;32125;48.518;9.050;2023-01-08T15:53:53;2.23;;;2.03;;
14619;SDS011;32125;48.518;9.050;2023-01-08T15:56:19;1.80;;;1.57;;
14619;SDS011;32125;48.518;9.050;2023-01-08T15:58:45;1.53;;;1.43;;
14619;SDS011;32125;48.518;9.050;2023-01-08T16:01:11;1.67;;;1.57;;
14619;SDS011;32125;48.518;9.050;2023-01-08T16:03:37;1.60;;;1.50;;
14619;SDS011;32125;48.518;9.050;2023-01-08T16:06:06;1.50;;;1.40;;
14619;SDS011;32125;48.518;9.050;2023-01-08T16:08:32;1.50;;;1.40;;
14619;SDS011;32125;48.518;9.050;2023-01-08T16:10:58;1.33;;;1.27;;
14619;SDS011;32125;48.518;9.050;2023-01-08T16:13:24;1.83;;;1.73;;
14619;SDS011;32125;48.518;9.050;2023-01-08T16:15:52;1.67;;;1.57;;
14619;SDS011;32125;48.518;9.050;2023-01-08T16:18:19;1.90;;;1.70;;
14619;SDS011;32125;48.518;9.050;2023-01-08T16:20:45;3.60;;;2.37;;
14619;SDS011;32125;48.518;9.050;2023-01-08T16:23:11;2.47;;;2.27;;
14619;SDS011;32125;48.518;9.050;2023-01-08T16:25:37;2.57;;;2.27;;
14619;SDS011;32125;48.518;9.050;2023-01-08T16:28:06;2.10;;;1.90;;
14619;SDS011;32125;48.518;9.050;2023-01-08T16:30:32;1.80;;;1.70;;
14619;SDS011;32125;48.518;9.050;2023-01-08T16:33:00;2.40;;;2.20;;
14619;SDS011;32125;48.518;9.050;2023-01-08T16:35:26;3.10;;;2.40;;
14619;SDS011;32125;48.518;9.050;2023-01-08T16:37:53;4.00;;;3.60;;
14619;SDS011;32125;48.518;9.050;2023-01-08T16:40:21;3.70;;;3.40;;
14619;SDS011;32125;48.518;9.050;2023-01-08T16:42:47;5.60;;;4.03;;
14619;SDS011;32125;48.518;9.050;2023-01-08T16:45:15;6.17;;;5.23;;
14619;SDS011;32125;48.518;9.050;2023-01-08T16:47:42;4.03;;;3.57;;
14619;SDS011;32125;48.518;9.050;2023-01-08T16:50:10;4.90;;;3.50;;
14619;SDS011;32125;48.518;9.050;2023-01-08T16:52:37;4.23;;;3.63;;